Hewlett, New York
Current Conditions -  °F | °C
As of 8:51 AM on Friday 28 Nov 2014 (Local Time) from KJFK Reporting Station
Scattered Clouds Scattered Clouds  
Wind Chill: 25°   Ceiling: Unl
Heat Index: 35°   Visibility: 10mi
Dew Point: 21°   Wind: 17mph
Humidity: 57%   Direction: 310°NW
Pressure: 30.18"   Gusts: NA
Location:  40.64°N, 73.7°W
Report Text: KJFK 281351Z 31015KT 10SM FEW045 SCT150 02/M06 A3018 RMK AO2 SLP219 T00171061 $
Loading
Personal Weather Stations






























Interactive Weather Map New forecast layout! Learn more

10-Day Weather Forecast

Advertisements
Track Severe Weather on mobile